Time;durP1;ratioP1;P1;durP2;ratioP2;P2;SDS_P1;SDS_P2;PMS_P1;PMS_P2;Temp;Humidity;BMP_temperature;BMP_pressure;BME280_temperature;BME280_humidity;BME280_pressure;Samples;Min_cycle;Max_cycle;Signal;HPM_P1;HPM_P2
2021/06/12 00:02:27;;;;;;;22.90;19.33;;;19.20;99.90;;;;;;5066833;28;20098;-68
2021/06/12 00:04:55;;;;;;;21.17;18.98;;;19.20;99.90;;;;;;5067416;28;20040;-68
2021/06/12 00:07:22;;;;;;;21.08;18.77;;;19.20;99.90;;;;;;5069044;28;20056;-68
2021/06/12 00:09:50;;;;;;;22.67;20.48;;;19.10;99.90;;;;;;5067045;28;20814;-68
2021/06/12 00:12:17;;;;;;;22.17;19.77;;;19.10;99.90;;;;;;5070417;28;20101;-68
2021/06/12 00:14:47;;;;;;;22.38;20.05;;;19.00;99.90;;;;;;5067295;28;20045;-68
2021/06/12 00:17:15;;;;;;;21.50;19.35;;;19.00;99.90;;;;;;5055039;28;20052;-68
2021/06/12 00:19:42;;;;;;;21.92;19.73;;;19.00;99.90;;;;;;5070425;28;20048;-68
2021/06/12 00:22:10;;;;;;;21.73;19.52;;;18.90;99.90;;;;;;5071508;28;20056;-68
2021/06/12 00:24:37;;;;;;;22.20;19.55;;;18.90;99.90;;;;;;5081971;28;20053;-68
2021/06/12 00:27:13;;;;;;;21.77;19.48;;;18.90;99.90;;;;;;5072151;28;20055;-68
2021/06/12 00:29:41;;;;;;;25.67;21.58;;;18.90;99.90;;;;;;5056014;28;20087;-68
2021/06/12 00:32:08;;;;;;;21.50;19.48;;;18.80;99.90;;;;;;5068450;28;20126;-68
2021/06/12 00:34:35;;;;;;;21.50;19.20;;;18.80;99.90;;;;;;5062884;28;20511;-68
2021/06/12 00:37:03;;;;;;;22.55;19.92;;;18.80;99.90;;;;;;5068647;28;20045;-68
2021/06/12 00:39:30;;;;;;;23.75;21.25;;;18.80;99.90;;;;;;5069122;28;20081;-68
2021/06/12 00:41:58;;;;;;;22.13;19.92;;;18.80;99.90;;;;;;5068469;28;20431;-68
2021/06/12 00:44:25;;;;;;;21.92;19.73;;;18.80;99.90;;;;;;5066985;28;20098;-68
2021/06/12 00:46:52;;;;;;;24.02;21.42;;;18.70;99.90;;;;;;5067519;28;20147;-68
2021/06/12 00:49:20;;;;;;;23.70;19.95;;;18.70;99.90;;;;;;5069028;28;20076;-68
2021/06/12 00:51:48;;;;;;;21.92;19.63;;;18.70;99.90;;;;;;5069858;28;20485;-68
2021/06/12 00:54:15;;;;;;;22.92;20.52;;;18.70;99.90;;;;;;5069902;28;20053;-68
2021/06/12 00:56:43;;;;;;;22.05;19.85;;;18.60;99.90;;;;;;5072368;28;20044;-68
2021/06/12 00:59:10;;;;;;;22.85;20.38;;;18.60;99.90;;;;;;5070712;28;20136;-68
2021/06/12 01:01:49;;;;;;;21.73;19.52;;;18.50;99.90;;;;;;5072045;28;20057;-67
2021/06/12 01:04:18;;;;;;;22.33;20.08;;;18.50;99.90;;;;;;5069132;28;20048;-66
2021/06/12 01:06:51;;;;;;;24.15;21.00;;;18.50;99.90;;;;;;5064518;28;20465;-67
2021/06/12 01:09:21;;;;;;;22.33;20.02;;;18.50;99.90;;;;;;5069249;28;20075;-66
2021/06/12 01:12:05;;;;;;;22.02;19.85;;;18.40;99.90;;;;;;5071146;28;20048;-67
2021/06/12 01:14:38;;;;;;;22.48;20.08;;;18.50;99.90;;;;;;5072721;28;20048;-66
2021/06/12 01:17:21;;;;;;;23.65;21.15;;;18.40;99.90;;;;;;5070635;28;20432;-66
2021/06/12 01:19:54;;;;;;;21.15;19.05;;;18.40;99.90;;;;;;5088288;28;20075;-66
2021/06/12 01:22:46;;;;;;;22.30;20.00;;;18.30;99.90;;;;;;5086650;28;20041;-66
2021/06/12 01:25:40;;;;;;;22.95;20.60;;;18.30;99.90;;;;;;5073841;28;20127;-66
2021/06/12 01:28:22;;;;;;;23.95;20.45;;;18.20;99.90;;;;;;5058868;28;20133;-66
2021/06/12 01:30:53;;;;;;;22.67;20.23;;;18.30;99.90;;;;;;5062965;28;20044;-66
2021/06/12 01:33:22;;;;;;;22.88;20.40;;;18.20;99.90;;;;;;5058084;28;20041;-66
2021/06/12 01:35:56;;;;;;;21.67;19.40;;;18.20;99.90;;;;;;5065989;28;20521;-67
2021/06/12 01:38:30;;;;;;;22.30;19.95;;;18.20;99.90;;;;;;5052701;28;20132;-66
2021/06/12 01:41:01;;;;;;;21.50;19.15;;;18.20;99.90;;;;;;5057513;28;20485;-66
2021/06/12 01:43:31;;;;;;;20.98;18.98;;;18.10;99.90;;;;;;5060744;28;20764;-67
2021/06/12 01:45:59;;;;;;;19.85;17.92;;;18.20;99.90;;;;;;5073039;28;20144;-68
2021/06/12 01:48:27;;;;;;;21.38;19.27;;;18.10;99.90;;;;;;5072253;28;20067;-68
2021/06/12 01:50:59;;;;;;;19.63;17.80;;;18.10;99.90;;;;;;5068513;28;20048;-67
2021/06/12 01:53:31;;;;;;;20.17;17.88;;;18.10;99.90;;;;;;5072358;28;20056;-68
2021/06/12 01:56:05;;;;;;;18.63;16.77;;;18.10;99.90;;;;;;5084743;28;20090;-67
2021/06/12 01:58:34;;;;;;;20.15;18.15;;;18.00;99.90;;;;;;5068560;28;20053;-67
2021/06/12 02:01:02;;;;;;;19.77;17.67;;;18.00;99.90;;;;;;5069190;28;20051;-67
2021/06/12 02:03:30;;;;;;;19.13;17.30;;;17.90;99.90;;;;;;5072403;28;20511;-67
2021/06/12 02:06:00;;;;;;;18.15;16.00;;;17.90;99.90;;;;;;5072452;28;20060;-67
2021/06/12 02:08:30;;;;;;;19.00;17.20;;;17.90;99.90;;;;;;5058989;28;20082;-67
2021/06/12 02:10:58;;;;;;;18.75;16.90;;;17.80;99.90;;;;;;5071190;28;20101;-67
2021/06/12 02:13:26;;;;;;;19.45;17.55;;;17.80;99.90;;;;;;5071559;28;20045;-67
2021/06/12 02:15:56;;;;;;;20.15;17.98;;;17.80;99.90;;;;;;5088317;28;20053;-67
2021/06/12 02:18:26;;;;;;;19.17;17.30;;;17.70;99.90;;;;;;5063221;28;20041;-67
2021/06/12 02:20:55;;;;;;;20.05;18.05;;;17.70;99.90;;;;;;5063847;28;20079;-67
2021/06/12 02:23:26;;;;;;;19.38;17.48;;;17.70;99.90;;;;;;5071209;28;20094;-67
2021/06/12 02:25:56;;;;;;;20.20;18.23;;;17.70;99.90;;;;;;5069709;28;20052;-67
2021/06/12 02:28:34;;;;;;;19.98;17.52;;;17.70;99.90;;;;;;5071179;28;20065;-67
2021/06/12 02:31:08;;;;;;;19.88;17.92;;;17.70;99.90;;;;;;5070641;28;20045;-67
2021/06/12 02:33:36;;;;;;;20.40;18.40;;;17.70;99.90;;;;;;5070944;28;20058;-67
2021/06/12 02:36:05;;;;;;;19.10;17.20;;;17.70;99.90;;;;;;5061932;28;20557;-68
2021/06/12 02:38:32;;;;;;;19.25;17.35;;;17.70;99.90;;;;;;5051967;28;20049;-67
2021/06/12 02:41:00;;;;;;;18.88;16.98;;;17.70;99.90;;;;;;5052457;28;20041;-67
2021/06/12 02:43:28;;;;;;;18.67;16.77;;;17.70;99.90;;;;;;5050490;28;20041;-67
2021/06/12 02:45:56;;;;;;;18.95;17.08;;;17.70;99.90;;;;;;5067592;28;20127;-67
2021/06/12 02:48:28;;;;;;;20.10;18.00;;;17.70;99.90;;;;;;5059137;28;20478;-67
2021/06/12 02:50:58;;;;;;;19.02;17.15;;;17.70;99.90;;;;;;5066148;28;20052;-67
2021/06/12 02:53:30;;;;;;;19.52;17.73;;;17.70;99.90;;;;;;5069495;28;20060;-67
2021/06/12 02:56:00;;;;;;;18.83;16.98;;;17.60;99.90;;;;;;5069387;28;20113;-67
2021/06/12 02:58:30;;;;;;;19.35;17.35;;;17.60;99.90;;;;;;5058563;28;20048;-67
2021/06/12 03:00:58;;;;;;;18.88;16.90;;;17.60;99.90;;;;;;5055744;28;20048;-67
2021/06/12 03:03:26;;;;;;;19.17;17.20;;;17.60;99.90;;;;;;5051043;28;20052;-67
2021/06/12 03:06:00;;;;;;;19.20;17.30;;;17.50;99.90;;;;;;5068503;28;20104;-67
2021/06/12 03:08:29;;;;;;;;;;;17.50;99.90;;;;;;5072000;28;20429;-67
2021/06/12 03:10:57;;;;;;;19.13;17.25;;;17.50;99.90;;;;;;5057674;28;19970;-67
2021/06/12 03:13:27;;;;;;;20.67;18.67;;;17.50;99.90;;;;;;5068055;28;20033;-67
2021/06/12 03:15:57;;;;;;;19.25;17.45;;;17.40;99.90;;;;;;5070547;28;20524;-67
2021/06/12 03:18:25;;;;;;;18.80;16.95;;;17.40;99.90;;;;;;5063702;28;20055;-67
2021/06/12 03:20:58;;;;;;;19.67;17.58;;;17.40;99.90;;;;;;5070084;28;20109;-67
2021/06/12 03:23:27;;;;;;;19.98;17.98;;;17.40;99.90;;;;;;5065075;28;20514;-67
2021/06/12 03:25:56;;;;;;;18.80;16.70;;;17.40;99.90;;;;;;5084394;28;20072;-67
2021/06/12 03:28:24;;;;;;;21.20;19.00;;;17.30;99.90;;;;;;5067667;28;20403;-67
2021/06/12 03:30:51;;;;;;;19.27;17.38;;;17.30;99.90;;;;;;5068348;28;20056;-67
2021/06/12 03:33:19;;;;;;;20.42;18.33;;;17.30;99.90;;;;;;5056418;28;20451;-67
2021/06/12 03:35:47;;;;;;;19.67;17.70;;;17.30;99.90;;;;;;5069209;28;20068;-67
2021/06/12 03:38:15;;;;;;;20.48;18.40;;;17.30;99.90;;;;;;5067858;28;20055;-67
2021/06/12 03:40:43;;;;;;;20.02;17.70;;;17.40;99.90;;;;;;5068525;28;20059;-67
2021/06/12 03:43:11;;;;;;;19.25;17.33;;;17.40;99.90;;;;;;5070012;28;20407;-68
2021/06/12 03:45:42;;;;;;;18.60;16.80;;;17.40;99.90;;;;;;5069245;28;20511;-67
2021/06/12 03:48:12;;;;;;;19.67;17.77;;;17.40;99.90;;;;;;5061598;28;20044;-67
2021/06/12 03:50:41;;;;;;;18.95;17.05;;;17.50;99.90;;;;;;5066577;28;20056;-67
2021/06/12 03:53:09;;;;;;;19.17;17.27;;;17.50;99.90;;;;;;5059353;28;20098;-67
2021/06/12 03:55:37;;;;;;;18.90;16.90;;;17.60;99.90;;;;;;5069647;28;20392;-67
2021/06/12 03:58:04;;;;;;;19.20;17.00;;;17.70;99.90;;;;;;5066554;28;20140;-67
2021/06/12 04:00:31;;;;;;;19.90;17.90;;;17.70;99.90;;;;;;5056963;28;20446;-67
2021/06/12 04:02:59;;;;;;;19.30;16.98;;;17.80;99.90;;;;;;5061249;28;20044;-67
2021/06/12 04:05:26;;;;;;;17.77;16.02;;;17.80;99.90;;;;;;5070221;28;20048;-67
2021/06/12 04:07:53;;;;;;;21.05;19.05;;;17.90;99.90;;;;;;5068737;28;20049;-67
2021/06/12 04:10:21;;;;;;;18.35;16.55;;;17.90;99.90;;;;;;5061179;28;20063;-67
2021/06/12 04:12:48;;;;;;;18.40;16.58;;;18.00;99.90;;;;;;5065184;28;20045;-67
2021/06/12 04:15:15;;;;;;;18.25;16.55;;;18.10;99.90;;;;;;5068521;28;20109;-67
2021/06/12 04:17:44;;;;;;;18.63;16.83;;;18.20;99.90;;;;;;5064943;28;20048;-67
2021/06/12 04:20:13;;;;;;;19.38;17.50;;;18.30;99.90;;;;;;5070569;28;20052;-67
2021/06/12 04:22:41;;;;;;;17.85;15.80;;;18.30;99.90;;;;;;5066231;28;20056;-67
2021/06/12 04:25:09;;;;;;;17.48;15.77;;;18.40;99.90;;;;;;5067888;28;20045;-67
2021/06/12 04:27:36;;;;;;;19.45;17.48;;;18.50;99.90;;;;;;5066730;28;20045;-67
2021/06/12 04:30:04;;;;;;;18.75;16.92;;;18.50;99.90;;;;;;5063828;28;20055;-67
2021/06/12 04:32:32;;;;;;;18.52;16.70;;;18.50;99.90;;;;;;5073231;28;20118;-67
2021/06/12 04:34:59;;;;;;;18.73;16.77;;;18.60;99.90;;;;;;5072669;28;20163;-67
2021/06/12 04:37:26;;;;;;;18.52;16.63;;;18.70;99.90;;;;;;5060806;28;20045;-67
2021/06/12 04:39:54;;;;;;;19.17;17.30;;;18.80;99.90;;;;;;5072341;28;20056;-67
2021/06/12 04:42:21;;;;;;;16.73;15.15;;;18.80;99.90;;;;;;5073316;28;20056;-67
2021/06/12 04:44:48;;;;;;;19.30;17.45;;;18.90;99.90;;;;;;5072737;28;20127;-67
2021/06/12 04:47:16;;;;;;;19.17;17.20;;;19.00;99.90;;;;;;5074167;28;20589;-67
2021/06/12 04:49:43;;;;;;;18.15;16.50;;;19.10;99.90;;;;;;5062604;28;20060;-67
2021/06/12 04:52:10;;;;;;;19.15;17.27;;;19.10;99.90;;;;;;5054310;28;20502;-67
2021/06/12 04:54:38;;;;;;;18.17;16.27;;;19.20;99.90;;;;;;5065552;28;20149;-67
2021/06/12 04:57:06;;;;;;;18.88;16.98;;;19.30;99.90;;;;;;5069968;28;20148;-68
2021/06/12 04:59:33;;;;;;;19.42;17.52;;;19.40;99.90;;;;;;5073283;28;20044;-68
2021/06/12 05:02:01;;;;;;;19.80;17.90;;;19.40;99.90;;;;;;5057738;28;20049;-68
2021/06/12 05:04:28;;;;;;;18.98;17.05;;;19.60;99.90;;;;;;5070565;28;20441;-68
2021/06/12 05:06:56;;;;;;;18.48;16.67;;;19.70;99.90;;;;;;5071110;28;20060;-68
2021/06/12 05:09:23;;;;;;;22.00;16.90;;;19.80;99.90;;;;;;5072185;28;20135;-68
2021/06/12 05:11:50;;;;;;;20.33;18.27;;;19.90;99.90;;;;;;5072395;28;20443;-68
2021/06/12 05:14:19;;;;;;;20.73;18.60;;;20.00;99.90;;;;;;5072467;28;20072;-68
2021/06/12 05:16:47;;;;;;;17.77;16.13;;;20.00;99.90;;;;;;5063722;28;20052;-68
2021/06/12 05:19:14;;;;;;;19.85;17.88;;;20.20;99.90;;;;;;5066949;28;20131;-68
2021/06/12 05:21:45;;;;;;;20.60;18.60;;;20.10;99.90;;;;;;5070988;28;20041;-68
2021/06/12 05:24:13;;;;;;;23.02;20.13;;;20.10;99.90;;;;;;5073019;28;20102;-68
2021/06/12 05:26:41;;;;;;;21.88;19.85;;;20.00;99.90;;;;;;5061893;28;20041;-68
2021/06/12 05:29:10;;;;;;;22.48;20.10;;;20.10;99.90;;;;;;5063174;28;20049;-68
2021/06/12 05:31:37;;;;;;;22.08;19.95;;;20.20;99.90;;;;;;5064689;28;20066;-68
2021/06/12 05:34:05;;;;;;;20.58;18.60;;;20.20;99.90;;;;;;5062694;28;20048;-68
2021/06/12 05:36:32;;;;;;;22.45;20.15;;;20.30;99.90;;;;;;5072205;28;20048;-68
2021/06/12 05:38:59;;;;;;;21.75;19.65;;;20.30;99.90;;;;;;5072104;28;20040;-68
2021/06/12 05:41:27;;;;;;;24.20;21.75;;;20.50;99.90;;;;;;5072271;28;20047;-68
2021/06/12 05:43:54;;;;;;;23.88;21.33;;;20.50;99.90;;;;;;5060654;28;20103;-68
2021/06/12 05:46:21;;;;;;;22.58;20.35;;;20.50;99.90;;;;;;5071024;28;20066;-68
2021/06/12 05:48:49;;;;;;;20.92;18.83;;;20.60;99.90;;;;;;5061134;28;20135;-68
2021/06/12 05:51:16;;;;;;;24.13;21.63;;;20.80;99.90;;;;;;5071909;28;20049;-68
2021/06/12 05:53:43;;;;;;;21.90;19.67;;;20.90;99.90;;;;;;5057959;28;20053;-68
2021/06/12 05:56:11;;;;;;;23.55;21.23;;;21.00;99.90;;;;;;5051651;28;20049;-68
2021/06/12 05:58:38;;;;;;;21.45;19.42;;;21.10;99.90;;;;;;5062151;28;20126;-68
2021/06/12 06:01:08;;;;;;;20.90;18.73;;;21.30;99.90;;;;;;5060971;28;20079;-68
2021/06/12 06:03:36;;;;;;;20.38;18.20;;;21.40;99.90;;;;;;5071359;28;20044;-68
2021/06/12 06:06:04;;;;;;;21.17;19.00;;;21.70;99.90;;;;;;5070252;28;20065;-68
2021/06/12 06:08:31;;;;;;;21.10;18.98;;;21.70;99.90;;;;;;5072579;28;20048;-68
2021/06/12 06:10:59;;;;;;;18.83;16.83;;;21.90;99.90;;;;;;5066634;28;20097;-68
2021/06/12 06:13:27;;;;;;;19.90;17.92;;;21.90;99.90;;;;;;5071241;28;20135;-68
2021/06/12 06:15:54;;;;;;;19.95;18.08;;;22.00;99.90;;;;;;5073055;28;20108;-68
2021/06/12 06:18:21;;;;;;;20.42;18.52;;;22.00;99.90;;;;;;5056230;28;20491;-68
2021/06/12 06:20:48;;;;;;;20.50;18.48;;;22.20;99.90;;;;;;5069668;28;20136;-66
2021/06/12 06:23:16;;;;;;;19.90;18.08;;;22.30;99.90;;;;;;5072079;28;20094;-67
2021/06/12 06:25:43;;;;;;;19.83;18.02;;;22.50;99.90;;;;;;5073494;28;20057;-67
2021/06/12 06:28:10;;;;;;;20.52;18.70;;;22.50;99.90;;;;;;5064505;28;20049;-67
2021/06/12 06:30:39;;;;;;;18.77;16.95;;;22.30;99.90;;;;;;5072451;28;20044;-67
2021/06/12 06:33:06;;;;;;;17.95;16.35;;;22.30;99.90;;;;;;5069909;28;20465;-68
2021/06/12 06:35:34;;;;;;;18.75;17.05;;;22.30;99.90;;;;;;5068928;28;20515;-68
2021/06/12 06:38:02;;;;;;;17.00;15.57;;;22.20;99.90;;;;;;5059329;28;20411;-66
2021/06/12 06:40:29;;;;;;;18.73;17.00;;;22.30;99.90;;;;;;5078529;28;20048;-66
2021/06/12 06:42:57;;;;;;;19.63;17.88;;;22.60;99.90;;;;;;5069321;28;20048;-66
2021/06/12 06:45:25;;;;;;;18.33;16.55;;;22.80;99.90;;;;;;5056094;28;20554;-67
2021/06/12 06:47:52;;;;;;;19.40;17.73;;;23.00;99.90;;;;;;5071719;28;20388;-66
2021/06/12 06:50:20;;;;;;;18.98;17.20;;;22.90;99.90;;;;;;5067326;28;20052;-67
2021/06/12 06:52:49;;;;;;;18.08;16.55;;;22.80;99.90;;;;;;5068828;28;20048;-66
2021/06/12 06:55:17;;;;;;;18.50;16.58;;;22.80;99.90;;;;;;5071450;28;20055;-66
2021/06/12 06:57:44;;;;;;;19.27;17.38;;;22.80;99.90;;;;;;5050130;28;20491;-66
2021/06/12 07:00:12;;;;;;;18.05;16.30;;;22.80;99.90;;;;;;5071828;28;20252;-66
2021/06/12 07:02:40;;;;;;;16.77;15.13;;;22.90;99.90;;;;;;5069720;28;20098;-67
2021/06/12 07:05:08;;;;;;;18.15;16.27;;;23.00;99.90;;;;;;5071587;28;20044;-66
2021/06/12 07:07:35;;;;;;;15.85;14.48;;;23.10;99.90;;;;;;5069403;28;20127;-66
2021/06/12 07:10:03;;;;;;;17.90;16.30;;;23.20;99.90;;;;;;5061174;28;20059;-67
2021/06/12 07:12:30;;;;;;;15.77;14.30;;;23.10;99.90;;;;;;5069645;28;20083;-67
2021/06/12 07:14:58;;;;;;;17.25;15.75;;;23.40;99.90;;;;;;5071962;28;20060;-67
2021/06/12 07:17:25;;;;;;;18.27;16.48;;;23.50;99.90;;;;;;5071204;28;20131;-68
2021/06/12 07:20:05;;;;;;;17.25;15.75;;;23.60;99.90;;;;;;5070434;28;20060;-67
2021/06/12 07:22:32;;;;;;;17.58;16.00;;;23.70;99.90;;;;;;5072708;28;20060;-68
2021/06/12 07:24:59;;;;;;;17.92;16.42;;;23.80;99.90;;;;;;5069620;28;20076;-68
2021/06/12 07:27:27;;;;;;;19.48;17.48;;;24.00;99.90;;;;;;5071485;28;20411;-68
2021/06/12 07:29:54;;;;;;;17.45;15.85;;;24.20;99.90;;;;;;5071475;28;20324;-68
2021/06/12 07:32:22;;;;;;;17.27;15.88;;;24.20;99.90;;;;;;5060824;28;20075;-68
2021/06/12 07:34:50;;;;;;;18.60;16.90;;;24.20;99.90;;;;;;5068450;28;20131;-67
2021/06/12 07:37:21;;;;;;;17.92;16.10;;;23.90;99.90;;;;;;5068347;28;20136;-67
2021/06/12 07:39:49;;;;;;;17.70;16.10;;;24.10;99.90;;;;;;5070876;28;20049;-67
2021/06/12 07:42:16;;;;;;;17.77;16.13;;;24.20;99.90;;;;;;5069876;28;20074;-67
2021/06/12 07:44:43;;;;;;;17.95;16.23;;;24.10;99.90;;;;;;5071209;28;20119;-68
2021/06/12 07:47:17;;;;;;;18.60;16.98;;;24.10;99.90;;;;;;5067632;28;20131;-67
2021/06/12 07:49:44;;;;;;;24.35;16.92;;;23.90;99.90;;;;;;5070785;28;20128;-68
2021/06/12 07:52:12;;;;;;;17.85;16.23;;;23.90;99.90;;;;;;5069845;28;20057;-67
2021/06/12 07:54:39;;;;;;;16.60;14.93;;;24.00;99.90;;;;;;5069401;28;20135;-68
2021/06/12 07:57:07;;;;;;;15.65;14.18;;;24.10;99.90;;;;;;5069506;28;20459;-67
2021/06/12 07:59:35;;;;;;;18.77;15.27;;;24.20;99.90;;;;;;5055880;28;20083;-68
2021/06/12 08:02:03;;;;;;;15.52;14.02;;;24.20;99.90;;;;;;5045744;28;20053;-66
2021/06/12 08:04:30;;;;;;;18.25;16.35;;;24.30;99.90;;;;;;5055152;28;20534;-66
2021/06/12 08:06:57;;;;;;;14.77;13.50;;;24.40;99.90;;;;;;5056762;28;20454;-66
2021/06/12 08:09:25;;;;;;;15.70;14.18;;;24.50;99.90;;;;;;5055101;28;20652;-66
2021/06/12 08:11:52;;;;;;;16.50;14.98;;;24.70;99.90;;;;;;5051982;28;20118;-66
2021/06/12 08:14:20;;;;;;;15.00;13.68;;;24.70;99.90;;;;;;5051818;28;20056;-66
2021/06/12 08:16:48;;;;;;;14.55;13.35;;;24.70;99.90;;;;;;5068034;28;20052;-66
2021/06/12 08:19:15;;;;;;;14.82;13.35;;;24.70;99.90;;;;;;5064143;28;20076;-67
2021/06/12 08:21:43;;;;;;;14.35;12.90;;;24.70;99.90;;;;;;5059825;28;20136;-67
2021/06/12 08:24:11;;;;;;;14.18;12.98;;;24.70;99.90;;;;;;5063575;28;20098;-67
2021/06/12 08:26:39;;;;;;;14.27;13.15;;;25.00;99.90;;;;;;5074101;28;20090;-66
2021/06/12 08:29:06;;;;;;;14.95;13.65;;;25.10;99.90;;;;;;5054624;28;20057;-66
2021/06/12 08:31:36;;;;;;;14.73;13.43;;;25.20;99.90;;;;;;5055411;28;20053;-66
2021/06/12 08:34:04;;;;;;;14.15;12.85;;;25.40;99.90;;;;;;5055232;28;20051;-66
2021/06/12 08:36:32;;;;;;;14.77;13.40;;;25.40;99.90;;;;;;5064541;28;20087;-66
2021/06/12 08:38:59;;;;;;;14.05;12.77;;;25.30;99.90;;;;;;5067787;28;20069;-66
2021/06/12 08:41:27;;;;;;;13.82;12.57;;;25.40;99.90;;;;;;5070219;28;20048;-67
2021/06/12 08:43:58;;;;;;;13.40;12.27;;;25.70;99.90;;;;;;5069534;28;20118;-67
2021/06/12 08:46:26;;;;;;;;;;;25.80;99.90;;;;;;5067537;28;20453;-67
2021/06/12 08:48:54;;;;;;;13.13;11.95;;;25.70;99.90;;;;;;5068813;28;20379;-67
2021/06/12 08:51:22;;;;;;;13.25;12.05;;;25.60;99.90;;;;;;5057084;28;20060;-66
2021/06/12 08:53:50;;;;;;;13.70;12.50;;;25.70;99.90;;;;;;5056913;28;20091;-67
2021/06/12 08:56:18;;;;;;;12.93;11.77;;;25.50;99.90;;;;;;5065976;28;20583;-67
2021/06/12 08:58:45;;;;;;;12.93;11.68;;;25.60;99.90;;;;;;5061322;28;20053;-67
2021/06/12 09:01:20;;;;;;;11.60;10.45;;;25.30;99.90;;;;;;5065231;28;20048;-66
2021/06/12 09:03:48;;;;;;;11.52;10.63;;;25.40;99.90;;;;;;5061401;28;20045;-67
2021/06/12 09:06:22;;;;;;;11.80;10.80;;;25.60;99.90;;;;;;5059167;28;20064;-66
2021/06/12 09:08:57;;;;;;;12.27;10.25;;;25.80;99.90;;;;;;5061897;28;20140;-67
2021/06/12 09:11:26;;;;;;;12.13;11.02;;;25.80;99.90;;;;;;5049141;28;20041;-66
2021/06/12 09:13:57;;;;;;;11.10;10.20;;;25.70;99.90;;;;;;5058909;28;20084;-66
2021/06/12 09:16:24;;;;;;;11.70;10.70;;;25.60;99.90;;;;;;5070899;28;20044;-67
2021/06/12 09:19:20;;;;;;;10.93;10.05;;;25.70;99.90;;;;;;5065762;28;20051;-67
2021/06/12 09:22:09;;;;;;;10.48;9.57;;;25.80;99.90;;;;;;5071470;28;20128;-66
2021/06/12 09:24:45;;;;;;;10.90;9.98;;;25.90;99.90;;;;;;5065452;28;20139;-66
2021/06/12 09:27:18;;;;;;;10.73;9.82;;;26.00;99.90;;;;;;5072499;28;20110;-67
2021/06/12 09:29:47;;;;;;;11.32;10.30;;;26.00;99.90;;;;;;5068207;28;20067;-67
2021/06/12 09:32:22;;;;;;;10.20;9.30;;;26.20;99.90;;;;;;5062691;28;20052;-69
2021/06/12 09:35:05;;;;;;;9.90;9.10;;;26.30;99.90;;;;;;5071014;28;20517;-66
2021/06/12 09:37:33;;;;;;;11.65;9.05;;;26.50;99.90;;;;;;5053202;28;20056;-67
2021/06/12 09:40:10;;;;;;;9.75;8.88;;;26.50;99.90;;;;;;5052616;28;20048;-66
2021/06/12 09:42:47;;;;;;;12.10;9.98;;;26.60;99.90;;;;;;5071971;28;20041;-67
2021/06/12 09:45:31;;;;;;;11.55;10.50;;;27.00;99.90;;;;;;5057411;28;20134;-67
2021/06/12 09:48:15;;;;;;;11.50;10.35;;;26.90;99.90;;;;;;5067676;28;20052;-67
2021/06/12 09:50:45;;;;;;;12.15;10.98;;;27.20;99.90;;;;;;5061536;28;20076;-67
2021/06/12 09:53:16;;;;;;;11.60;10.43;;;27.50;99.90;;;;;;5073004;28;20072;-67
2021/06/12 09:55:45;;;;;;;12.70;10.52;;;27.70;99.90;;;;;;5072052;28;20049;-67
2021/06/12 09:58:13;;;;;;;11.98;9.85;;;27.60;99.90;;;;;;5071553;28;20186;-67
2021/06/12 10:00:48;;;;;;;11.40;10.25;;;27.60;99.90;;;;;;5072054;28;20040;-67
2021/06/12 10:03:26;;;;;;;10.65;9.73;;;27.50;99.90;;;;;;5071870;28;20483;-67
2021/06/12 10:06:21;;;;;;;11.20;10.20;;;27.60;99.90;;;;;;5072678;28;20072;-67
2021/06/12 10:08:50;;;;;;;11.45;10.45;;;27.80;99.90;;;;;;5063984;28;20096;-67
2021/06/12 10:11:25;;;;;;;12.20;11.00;;;27.70;99.90;;;;;;5071814;28;20098;-67
2021/06/12 10:13:53;;;;;;;10.82;9.95;;;27.40;99.90;;;;;;5072486;28;20084;-67
2021/06/12 10:16:21;;;;;;;11.18;10.07;;;27.40;99.90;;;;;;5072550;28;20079;-67
2021/06/12 10:18:51;;;;;;;10.82;9.82;;;27.50;99.90;;;;;;5062355;28;20063;-67
2021/06/12 10:21:18;;;;;;;11.18;10.18;;;27.40;99.90;;;;;;5070953;28;20446;-67
2021/06/12 10:23:47;;;;;;;10.55;9.73;;;27.40;99.90;;;;;;5071150;28;20465;-67
2021/06/12 10:26:19;;;;;;;10.63;9.80;;;27.60;99.90;;;;;;5060784;28;20130;-67
2021/06/12 10:28:47;;;;;;;10.73;9.93;;;27.70;99.90;;;;;;5058220;28;20110;-67
2021/06/12 10:31:21;;;;;;;10.52;9.65;;;27.80;99.90;;;;;;5070792;28;20083;-67
2021/06/12 10:33:54;;;;;;;10.27;9.40;;;27.70;99.90;;;;;;5071582;28;20115;-67
2021/06/12 10:36:23;;;;;;;10.70;9.90;;;27.70;99.90;;;;;;5060661;28;20472;-67
2021/06/12 10:38:51;;;;;;;10.68;9.88;;;27.90;99.90;;;;;;5082520;28;20124;-67
2021/06/12 10:41:34;;;;;;;10.50;9.60;;;28.00;99.90;;;;;;5070631;28;20128;-66
2021/06/12 10:44:04;;;;;;;10.75;9.85;;;28.00;99.90;;;;;;5071668;28;20488;-66
2021/06/12 10:46:44;;;;;;;11.07;10.10;;;28.10;99.90;;;;;;5071068;28;20048;-67
2021/06/12 10:49:26;;;;;;;11.13;10.13;;;28.10;99.90;;;;;;5068946;28;20056;-67
2021/06/12 10:51:53;;;;;;;10.52;9.65;;;27.80;99.90;;;;;;5067735;28;20148;-67
2021/06/12 10:54:28;;;;;;;10.13;9.35;;;27.80;99.90;;;;;;5070046;28;20048;-67
2021/06/12 10:57:15;;;;;;;10.10;9.13;;;27.80;99.90;;;;;;5070452;28;20060;-67
2021/06/12 10:59:45;;;;;;;9.85;8.93;;;27.70;99.90;;;;;;5071573;28;20491;-68
2021/06/12 11:04:52;;;;;;;10.15;9.15;;;27.90;99.90;;;;;;5070841;28;20049;-67
2021/06/12 11:07:28;;;;;;;9.70;8.82;;;28.00;99.90;;;;;;5068072;28;20083;-67
2021/06/12 11:10:16;;;;;;;9.98;9.07;;;28.20;99.90;;;;;;5066005;28;20140;-66
2021/06/12 11:12:45;;;;;;;10.23;9.13;;;28.40;99.90;;;;;;5062708;28;20057;-68
2021/06/12 11:15:21;;;;;;;10.10;9.23;;;28.40;99.90;;;;;;5067310;28;20143;-68
2021/06/12 11:18:11;;;;;;;10.30;9.30;;;28.20;99.90;;;;;;5059810;28;20045;-66
2021/06/12 11:20:45;;;;;;;10.35;9.52;;;28.00;99.90;;;;;;5074600;28;20164;-66
2021/06/12 11:23:20;;;;;;;10.88;9.05;;;28.40;99.90;;;;;;5067753;28;20079;-67
2021/06/12 11:25:56;;;;;;;9.85;9.02;;;28.50;99.90;;;;;;5073358;28;20059;-67
2021/06/12 11:28:26;;;;;;;9.82;8.90;;;28.20;99.90;;;;;;5071251;28;20123;-66
2021/06/12 11:31:29;;;;;;;9.57;8.77;;;28.00;99.90;;;;;;5071326;28;20584;-67
2021/06/12 11:34:18;;;;;;;9.30;8.45;;;28.20;99.90;;;;;;5057624;28;20043;-67
2021/06/12 11:36:48;;;;;;;9.40;8.50;;;28.30;99.90;;;;;;5070708;28;20094;-67
2021/06/12 11:39:16;;;;;;;9.35;8.55;;;28.70;99.90;;;;;;5064937;28;20072;-67
2021/06/12 11:41:44;;;;;;;11.43;8.52;;;28.90;99.90;;;;;;5062299;28;20041;-66
2021/06/12 11:44:12;;;;;;;9.27;8.43;;;29.00;99.90;;;;;;5056866;28;20372;-66
2021/06/12 11:46:43;;;;;;;9.85;9.05;;;29.20;99.90;;;;;;5052327;28;20087;-66
2021/06/12 11:49:13;;;;;;;9.52;8.73;;;29.40;99.90;;;;;;5052561;28;20056;-67
2021/06/12 11:51:46;;;;;;;9.60;8.63;;;29.20;99.90;;;;;;5068536;28;20052;-67
2021/06/12 11:54:21;;;;;;;9.50;8.70;;;29.10;99.90;;;;;;5066250;28;20064;-67
2021/06/12 11:56:54;;;;;;;9.20;8.23;;;29.20;99.90;;;;;;5069889;28;20055;-67
2021/06/12 11:59:25;;;;;;;9.38;8.57;;;29.00;99.90;;;;;;5068301;28;20051;-68
2021/06/12 12:02:00;;;;;;;9.30;8.50;;;29.20;99.90;;;;;;5068493;28;20483;-67
2021/06/12 12:04:51;;;;;;;8.80;8.00;;;29.20;99.90;;;;;;5060476;28;20076;-67
2021/06/12 12:07:18;;;;;;;9.48;8.48;;;29.50;99.90;;;;;;5063311;28;20056;-68
2021/06/12 12:09:53;;;;;;;9.55;8.75;;;29.70;99.90;;;;;;5063275;28;20507;-68
2021/06/12 12:12:21;;;;;;;9.27;8.50;;;29.70;99.90;;;;;;5056323;28;20072;-68
2021/06/12 12:14:55;;;;;;;9.60;8.80;;;30.00;99.90;;;;;;5063097;28;20129;-68
2021/06/12 12:17:28;;;;;;;9.23;8.52;;;30.20;99.90;;;;;;5062585;28;20400;-68
2021/06/12 12:20:00;;;;;;;9.23;8.48;;;30.60;99.90;;;;;;5067784;28;20052;-68
2021/06/12 12:22:44;;;;;;;9.43;8.52;;;30.60;99.90;;;;;;5066849;28;20082;-68
2021/06/12 12:25:13;;;;;;;10.05;9.07;;;30.60;99.90;;;;;;5071109;28;20041;-68
2021/06/12 12:27:41;;;;;;;9.65;8.85;;;30.50;99.90;;;;;;5074595;28;20588;-68
2021/06/12 12:30:10;;;;;;;9.70;9.00;;;30.20;99.90;;;;;;5085307;28;20170;-68
2021/06/12 12:32:44;;;;;;;9.75;9.05;;;30.30;99.90;;;;;;5070360;28;20052;-68
2021/06/12 12:35:16;;;;;;;9.82;9.00;;;30.10;99.90;;;;;;5060707;28;20106;-68
2021/06/12 12:37:44;;;;;;;10.00;9.25;;;29.90;99.90;;;;;;5062263;28;20111;-68
2021/06/12 12:40:16;;;;;;;9.82;9.02;;;29.60;99.90;;;;;;5069731;28;20056;-68
2021/06/12 12:42:45;;;;;;;9.68;8.98;;;29.40;99.90;;;;;;5055443;28;20092;-68
2021/06/12 12:45:14;;;;;;;9.98;9.02;;;29.20;99.90;;;;;;5068985;28;20074;-68
2021/06/12 12:47:42;;;;;;;9.27;8.57;;;28.70;99.90;;;;;;5038189;28;20484;-68
2021/06/12 12:50:09;;;;;;;10.57;9.35;;;28.10;99.90;;;;;;5060669;28;20076;-68